Terminal Aerodrome Forecast
Issued by NWS Wichita, KS

Home | Current Version | Previous Version | Text Only | Print | Product List | Glossary On
Versions: 1 2 3 4 5 6 7 8 9 10 11 12
000
FTUS43 KICT 011733
TAFICT
TAF
KICT 011733Z 0118/0218 16006KT P6SM SCT150
     FM020000 13005KT P6SM SCT150
     FM021600 15008KT P6SM SCT100=

USA.gov is the U.S. government's official web portal to all federal, state and local government web resources and services.